createdAt,value
2019-01-10T00:00:54.929Z,20.82
2019-01-10T00:03:23.569Z,18.80
2019-01-10T00:05:52.409Z,21.87
2019-01-10T00:08:21.209Z,23.32
2019-01-10T00:10:49.799Z,26.10
2019-01-10T00:13:18.683Z,20.97
2019-01-10T00:15:47.250Z,18.85
2019-01-10T00:18:15.831Z,23.25
2019-01-10T00:20:44.429Z,24.02
2019-01-10T00:23:13.026Z,16.20
2019-01-10T00:25:41.895Z,22.13
2019-01-10T00:28:10.471Z,24.30
2019-01-10T00:30:58.627Z,18.30
2019-01-10T00:33:27.252Z,24.15
2019-01-10T00:36:15.113Z,15.45
2019-01-10T00:38:43.696Z,25.35
2019-01-10T00:41:12.272Z,21.00
2019-01-10T00:43:41.096Z,23.42
2019-01-10T00:46:09.898Z,18.42
2019-01-10T00:48:38.497Z,27.67
2019-01-10T00:51:07.433Z,23.83
2019-01-10T00:53:36.051Z,23.83
2019-01-10T00:56:44.465Z,21.73
2019-01-10T00:59:13.326Z,24.92
2019-01-10T01:01:41.915Z,18.60
2019-01-10T01:04:10.506Z,19.40
2019-01-10T01:06:39.154Z,22.42
2019-01-10T01:09:08.460Z,26.30
2019-01-10T01:11:37.423Z,20.68
2019-01-10T01:17:13.257Z,28.20
2019-01-10T01:19:42.223Z,24.55
2019-01-10T01:22:10.787Z,24.27
2019-01-10T01:24:39.372Z,25.62
2019-01-10T01:27:07.942Z,26.68
2019-01-10T01:29:36.506Z,24.85
2019-01-10T01:32:05.192Z,27.90
2019-01-10T01:34:33.994Z,26.15
2019-01-10T01:37:02.624Z,25.45
2019-01-10T01:39:31.195Z,23.98
2019-01-10T01:42:00.025Z,19.85
2019-01-10T01:44:28.601Z,19.25
2019-01-10T01:46:57.192Z,22.93
2019-01-10T01:49:25.978Z,19.37
2019-01-10T01:51:54.632Z,27.48
2019-01-10T01:57:10.876Z,28.35
2019-01-10T01:59:39.774Z,32.78
2019-01-10T02:02:08.433Z,28.20
2019-01-10T02:04:37.196Z,26.62
2019-01-10T02:07:05.923Z,21.05
2019-01-10T02:09:34.642Z,24.98
2019-01-10T02:12:03.203Z,25.15
2019-01-10T02:14:31.804Z,21.45
2019-01-10T02:17:00.366Z,27.48
2019-01-10T02:19:29.262Z,19.07
2019-01-10T02:21:58.136Z,24.80
2019-01-10T02:24:26.716Z,24.18
2019-01-10T02:26:55.556Z,19.92
2019-01-10T02:29:24.133Z,24.75
2019-01-10T02:31:52.946Z,24.82
2019-01-10T02:34:21.508Z,17.73
2019-01-10T02:36:50.093Z,19.48
2019-01-10T02:39:18.662Z,23.98
2019-01-10T02:41:47.214Z,17.60
2019-01-10T02:44:15.798Z,27.80
2019-01-10T02:46:44.389Z,17.60
2019-01-10T02:51:47.463Z,20.82
2019-01-10T02:56:50.426Z,22.25
2019-01-10T02:59:19.034Z,19.98
2019-01-10T03:04:35.283Z,25.10
2019-01-10T03:07:03.945Z,25.35
2019-01-10T03:09:32.570Z,21.23
2019-01-10T03:12:01.496Z,19.77
2019-01-10T03:14:30.090Z,25.12
2019-01-10T03:16:58.717Z,16.35
2019-01-10T03:19:27.419Z,26.35
2019-01-10T03:21:55.981Z,32.08
2019-01-10T03:24:24.570Z,24.57
2019-01-10T03:26:53.145Z,19.85
2019-01-10T03:32:09.921Z,20.55
2019-01-10T03:34:38.492Z,23.10
2019-01-10T03:37:07.215Z,20.55
2019-01-10T03:39:35.803Z,32.13
2019-01-10T03:42:04.833Z,22.15
2019-01-10T03:44:34.478Z,26.62
2019-01-10T03:47:03.327Z,25.17
2019-01-10T03:49:32.193Z,24.90
2019-01-10T03:52:00.773Z,28.47
2019-01-10T03:54:29.575Z,29.05
2019-01-10T03:56:58.150Z,28.90
2019-01-10T03:59:27.315Z,21.07
2019-01-10T04:01:55.912Z,29.63
2019-01-10T04:04:24.478Z,45.78
2019-01-10T04:06:53.082Z,26.10
2019-01-10T04:09:21.723Z,36.68
2019-01-10T04:11:50.299Z,38.23
2019-01-10T04:14:18.888Z,28.83
2019-01-10T04:16:47.479Z,29.55
2019-01-10T04:19:16.063Z,30.12
2019-01-10T04:21:44.652Z,26.05
2019-01-10T04:24:13.244Z,33.02
2019-01-10T04:26:42.066Z,26.73
2019-01-10T04:29:10.657Z,25.68
2019-01-10T04:31:39.268Z,23.47
2019-01-10T04:34:07.852Z,29.92
2019-01-10T04:36:36.487Z,32.63
2019-01-10T04:39:26.675Z,34.30
2019-01-10T04:41:55.287Z,35.95
2019-01-10T04:44:23.883Z,31.25
2019-01-10T04:46:52.452Z,28.80
2019-01-10T04:49:21.030Z,22.30
2019-01-10T04:54:38.362Z,25.55
2019-01-10T04:57:07.242Z,23.80
2019-01-10T04:59:35.858Z,26.25
2019-01-10T05:02:04.898Z,33.15
2019-01-10T05:04:33.487Z,34.98
2019-01-10T05:07:02.330Z,32.73
2019-01-10T05:09:30.894Z,37.48
2019-01-10T05:14:34.595Z,37.48
2019-01-10T05:17:03.210Z,27.60
2019-01-10T05:19:31.803Z,38.67
2019-01-10T05:22:00.644Z,33.65
2019-01-10T05:24:29.241Z,42.65
2019-01-10T05:26:57.807Z,34.78
2019-01-10T05:29:26.403Z,34.50
2019-01-10T05:31:54.980Z,32.05
2019-01-10T05:34:23.559Z,40.73
2019-01-10T05:36:52.353Z,29.23
2019-01-10T05:42:08.823Z,39.03
2019-01-10T05:44:37.387Z,34.43
2019-01-10T05:47:05.989Z,33.70
2019-01-10T05:49:34.571Z,35.10
2019-01-10T05:52:03.185Z,37.98
2019-01-10T05:54:31.820Z,29.02
2019-01-10T05:57:00.679Z,38.48
2019-01-10T05:59:29.256Z,30.52
2019-01-10T06:01:57.940Z,35.92
2019-01-10T06:04:26.640Z,25.70
2019-01-10T06:06:55.279Z,31.20
2019-01-10T06:09:23.916Z,35.55
2019-01-10T06:11:52.831Z,40.48
2019-01-10T06:14:21.552Z,44.65
2019-01-10T06:16:50.209Z,33.80
2019-01-10T06:19:26.678Z,42.40
2019-01-10T06:21:49.582Z,34.10
2019-01-10T06:24:18.223Z,46.42
2019-01-10T06:29:34.720Z,37.35
2019-01-10T06:32:03.385Z,37.60
2019-01-10T06:34:31.988Z,41.00
2019-01-10T06:37:00.877Z,36.68
2019-01-10T06:39:29.483Z,31.80
2019-01-10T06:41:58.098Z,36.85
2019-01-10T06:44:26.919Z,33.53
2019-01-10T06:47:14.776Z,45.78
2019-01-10T06:49:43.355Z,35.50
2019-01-10T06:52:11.960Z,33.08
2019-01-10T06:54:40.524Z,31.70
2019-01-10T06:57:09.141Z,31.15
2019-01-10T07:02:25.690Z,26.77
2019-01-10T07:04:54.352Z,29.63
2019-01-10T07:07:23.505Z,29.60
2019-01-10T07:09:52.090Z,27.42
2019-01-10T07:12:39.994Z,31.95
2019-01-10T07:15:08.782Z,28.07
2019-01-10T07:17:37.392Z,27.85
2019-01-10T07:20:25.830Z,28.95
2019-01-10T07:22:54.864Z,31.50
2019-01-10T07:25:23.454Z,36.65
2019-01-10T07:27:52.443Z,38.00
2019-01-10T07:30:23.763Z,29.48
2019-01-10T07:32:52.343Z,29.82
2019-01-10T07:35:20.962Z,28.47
2019-01-10T07:38:09.730Z,27.05
2019-01-10T07:40:39.795Z,27.82
2019-01-10T07:43:08.379Z,27.45
2019-01-10T07:45:37.197Z,33.85
2019-01-10T07:48:08.473Z,26.02
2019-01-10T07:50:58.766Z,26.62
2019-01-10T07:56:15.335Z,27.05
2019-01-10T07:58:43.916Z,27.90
2019-01-10T08:01:12.509Z,25.40
2019-01-10T08:03:41.083Z,31.70
2019-01-10T08:06:10.006Z,29.85
2019-01-10T08:08:38.701Z,25.17
2019-01-10T08:11:07.509Z,28.75
2019-01-10T08:13:36.076Z,24.67
2019-01-10T08:16:05.040Z,19.62
2019-01-10T08:18:33.610Z,23.00
2019-01-10T08:21:02.202Z,28.10
2019-01-10T08:23:50.044Z,23.42
2019-01-10T08:26:18.636Z,26.20
2019-01-10T08:28:47.234Z,26.42
2019-01-10T08:31:55.686Z,27.73
2019-01-10T08:34:43.845Z,30.00
2019-01-10T08:37:12.432Z,20.60
2019-01-10T08:39:41.046Z,18.52
2019-01-10T08:42:09.920Z,27.05
2019-01-10T08:44:38.599Z,27.82
2019-01-10T08:47:07.484Z,26.45
2019-01-10T08:49:55.331Z,20.45
2019-01-10T08:55:11.642Z,26.77
2019-01-10T08:57:40.514Z,30.57
2019-01-10T09:00:12.484Z,34.98
2019-01-10T09:02:41.204Z,30.82
2019-01-10T09:05:12.369Z,43.73
2019-01-10T09:10:33.397Z,35.25
2019-01-10T09:13:02.094Z,37.28
2019-01-10T09:15:34.571Z,26.23
2019-01-10T09:18:01.340Z,24.75
2019-01-10T09:20:30.120Z,25.35
2019-01-10T09:22:58.708Z,23.83
2019-01-10T09:25:27.414Z,27.15
2019-01-10T09:27:56.399Z,23.70
2019-01-10T09:30:24.935Z,30.40
2019-01-10T09:32:53.644Z,32.03
2019-01-10T09:35:22.316Z,25.95
2019-01-10T09:37:51.136Z,25.50
2019-01-10T09:40:20.879Z,20.75
2019-01-10T09:42:49.877Z,22.07
2019-01-10T09:45:20.983Z,21.65
2019-01-10T09:47:49.617Z,20.55
2019-01-10T09:50:18.837Z,30.85
2019-01-10T09:52:47.859Z,26.33
2019-01-10T09:55:16.710Z,29.32
2019-01-10T09:57:45.383Z,41.63
2019-01-10T10:00:19.764Z,21.05
2019-01-10T10:02:48.459Z,19.52
2019-01-10T10:05:17.121Z,21.87
2019-01-10T10:07:45.765Z,21.23
2019-01-10T10:10:16.294Z,21.07
2019-01-10T10:12:45.301Z,19.77
2019-01-10T10:15:14.658Z,22.30
2019-01-10T10:17:43.217Z,22.73
2019-01-10T10:20:14.824Z,17.10
2019-01-10T10:22:43.436Z,16.05
2019-01-10T10:25:12.429Z,22.05
2019-01-10T10:27:41.231Z,21.15
2019-01-10T10:30:12.914Z,17.73
2019-01-10T10:32:41.853Z,15.08
2019-01-10T10:35:11.055Z,20.57
2019-01-10T10:37:39.956Z,17.37
2019-01-10T10:40:11.579Z,14.75
2019-01-10T10:42:40.265Z,20.70
2019-01-10T10:45:10.251Z,19.50
2019-01-10T10:47:38.835Z,19.25
2019-01-10T10:50:09.891Z,15.10
2019-01-10T10:52:38.561Z,19.75
2019-01-10T10:55:07.612Z,22.67
2019-01-10T10:57:36.181Z,16.65
2019-01-10T11:00:07.872Z,21.10
2019-01-10T11:02:36.553Z,24.67
2019-01-10T11:05:05.610Z,13.30
2019-01-10T11:07:34.193Z,11.45
2019-01-10T11:10:02.860Z,21.33
2019-01-10T11:12:32.301Z,16.87
2019-01-10T11:15:00.929Z,16.60
2019-01-10T11:17:29.536Z,16.60
2019-01-10T11:19:58.347Z,14.98
2019-01-10T11:22:26.991Z,18.35
2019-01-10T11:24:55.713Z,8.68
2019-01-10T11:27:24.431Z,7.47
2019-01-10T11:29:53.130Z,8.73
2019-01-10T11:32:21.756Z,10.68
2019-01-10T11:34:50.418Z,15.53
2019-01-10T11:37:19.025Z,13.20
2019-01-10T11:39:47.600Z,12.60
2019-01-10T11:42:16.207Z,18.05
2019-01-10T11:44:44.858Z,10.75
2019-01-10T11:47:13.444Z,11.83
2019-01-10T11:49:42.133Z,13.95
2019-01-10T11:52:10.928Z,12.60
2019-01-10T11:54:39.544Z,10.98
2019-01-10T11:57:08.097Z,14.05
2019-01-10T11:59:37.722Z,13.30
2019-01-10T12:02:06.323Z,10.25
2019-01-10T12:04:34.940Z,11.10
2019-01-10T12:07:03.765Z,11.18
2019-01-10T12:09:32.423Z,8.95
2019-01-10T12:12:00.992Z,10.05
2019-01-10T12:14:29.871Z,8.10
2019-01-10T12:16:58.652Z,10.75
2019-01-10T12:19:27.326Z,9.70
2019-01-10T12:21:55.907Z,14.13
2019-01-10T12:24:25.029Z,13.03
2019-01-10T12:26:54.137Z,11.05
2019-01-10T12:29:22.923Z,12.47
2019-01-10T12:31:51.790Z,11.97
2019-01-10T12:34:20.368Z,17.27
2019-01-10T12:36:48.980Z,13.62
2019-01-10T12:39:17.565Z,11.97
2019-01-10T12:41:46.157Z,17.17
2019-01-10T12:44:14.735Z,19.90
2019-01-10T12:46:43.335Z,15.32
2019-01-10T12:49:11.997Z,16.17
2019-01-10T12:51:40.609Z,20.77
2019-01-10T12:54:09.178Z,12.35
2019-01-10T12:56:37.874Z,14.68
2019-01-10T12:59:07.807Z,12.13
2019-01-10T13:01:36.492Z,22.58
2019-01-10T13:04:05.262Z,14.45
2019-01-10T13:06:33.841Z,20.72
2019-01-10T13:09:02.435Z,10.65
2019-01-10T13:11:31.250Z,15.88
2019-01-10T13:13:59.931Z,14.75
2019-01-10T13:16:28.575Z,8.63
2019-01-10T13:18:57.148Z,14.03
2019-01-10T13:21:26.048Z,9.48
2019-01-10T13:23:54.610Z,14.03
2019-01-10T13:26:23.242Z,10.98
2019-01-10T13:28:51.885Z,8.43
2019-01-10T13:31:20.528Z,10.80
2019-01-10T13:33:49.095Z,9.33
2019-01-10T13:36:17.767Z,6.20
2019-01-10T13:38:46.360Z,7.28
2019-01-10T13:41:15.002Z,14.20
2019-01-10T13:43:43.883Z,6.75
2019-01-10T13:46:12.454Z,4.72
2019-01-10T13:48:41.086Z,14.87
2019-01-10T13:51:09.708Z,9.20
2019-01-10T13:53:38.300Z,13.93
2019-01-10T13:56:07.217Z,5.85
2019-01-10T13:58:35.825Z,11.65
2019-01-10T14:01:04.427Z,13.60
2019-01-10T14:03:33.251Z,9.28
2019-01-10T14:06:01.815Z,8.78
2019-01-10T14:08:30.394Z,8.43
2019-01-10T14:10:58.991Z,6.53
2019-01-10T14:13:27.546Z,12.70
2019-01-10T14:15:56.124Z,12.60
2019-01-10T14:18:24.766Z,14.03
2019-01-10T14:20:53.584Z,10.98
2019-01-10T14:23:22.906Z,12.33
2019-01-10T14:25:51.545Z,10.80
2019-01-10T14:28:20.176Z,12.78
2019-01-10T14:30:48.793Z,22.60
2019-01-10T14:33:17.477Z,15.90
2019-01-10T14:35:46.028Z,9.73
2019-01-10T14:38:14.606Z,12.40
2019-01-10T14:40:43.165Z,13.38
2019-01-10T14:43:11.829Z,13.80
2019-01-10T14:45:41.696Z,23.85
2019-01-10T14:48:10.281Z,12.78
2019-01-10T14:50:38.919Z,12.78
2019-01-10T14:53:07.651Z,12.20
2019-01-10T14:55:36.281Z,14.80
2019-01-10T14:58:05.163Z,15.25
2019-01-10T15:00:33.758Z,23.07
2019-01-10T15:03:02.335Z,18.35
2019-01-10T15:05:34.607Z,14.03
2019-01-10T15:08:01.551Z,14.45
2019-01-10T15:10:30.198Z,14.53
2019-01-10T15:12:58.852Z,15.28
2019-01-10T15:15:27.645Z,16.02
2019-01-10T15:17:56.230Z,17.32
2019-01-10T15:20:28.284Z,16.65
2019-01-10T15:22:57.201Z,19.30
2019-01-10T15:25:25.775Z,22.50
2019-01-10T15:27:54.345Z,28.95
2019-01-10T15:30:24.804Z,16.30
2019-01-10T15:32:53.399Z,21.23
2019-01-10T15:35:22.073Z,18.82
2019-01-10T15:37:51.068Z,17.60
2019-01-10T15:40:23.673Z,22.32
2019-01-10T15:42:52.237Z,18.15
2019-01-10T15:45:21.074Z,16.75
2019-01-10T15:47:49.654Z,22.65
2019-01-10T15:50:18.675Z,27.73
2019-01-10T15:52:47.566Z,18.42
2019-01-10T15:55:16.893Z,23.22
2019-01-10T15:57:45.480Z,26.33
2019-01-10T16:00:16.915Z,29.52
2019-01-10T16:02:45.874Z,22.58
2019-01-10T16:05:14.768Z,23.77
2019-01-10T16:07:43.420Z,17.10
2019-01-10T16:10:13.473Z,27.52
2019-01-10T16:12:42.039Z,24.12
2019-01-10T16:15:13.126Z,29.67
2019-01-10T16:17:41.824Z,25.88
2019-01-10T16:20:10.562Z,26.73
2019-01-10T16:22:39.234Z,18.23
2019-01-10T16:25:08.268Z,24.57
2019-01-10T16:27:36.875Z,24.18
2019-01-10T16:30:08.832Z,27.50
2019-01-10T16:32:37.811Z,25.17
2019-01-10T16:35:07.036Z,23.65
2019-01-10T16:37:35.683Z,30.27
2019-01-10T16:40:04.880Z,35.50
2019-01-10T16:42:33.458Z,24.87
2019-01-10T16:45:02.059Z,39.75
2019-01-10T16:47:31.758Z,31.20
2019-01-10T16:50:00.722Z,24.12
2019-01-10T16:52:29.377Z,32.67
2019-01-10T16:54:57.979Z,26.23
2019-01-10T16:57:26.629Z,35.03
2019-01-10T16:59:55.210Z,39.23
2019-01-10T17:02:24.070Z,46.20
2019-01-10T17:04:52.642Z,45.75
2019-01-10T17:07:21.294Z,38.50
2019-01-10T17:09:50.155Z,36.93
2019-01-10T17:12:18.721Z,33.30
2019-01-10T17:14:47.294Z,30.95
2019-01-10T17:17:15.877Z,42.23
2019-01-10T17:19:44.479Z,43.35
2019-01-10T17:22:13.092Z,34.75
2019-01-10T17:24:41.674Z,27.13
2019-01-10T17:27:10.584Z,39.58
2019-01-10T17:29:39.476Z,34.13
2019-01-10T17:32:08.209Z,38.25
2019-01-10T17:34:37.048Z,35.20
2019-01-10T17:37:05.823Z,39.90
2019-01-10T17:39:34.378Z,35.00
2019-01-10T17:42:03.029Z,39.85
2019-01-10T17:44:31.681Z,32.55
2019-01-10T17:47:00.279Z,30.97
2019-01-10T17:49:29.112Z,33.38
2019-01-10T17:51:57.700Z,40.20
2019-01-10T17:54:26.273Z,42.30
2019-01-10T17:56:55.125Z,38.98
2019-01-10T17:59:23.695Z,34.55
2019-01-10T18:01:52.570Z,30.57
2019-01-10T18:04:21.173Z,29.72
2019-01-10T18:06:49.749Z,27.32
2019-01-10T18:09:18.322Z,33.63
2019-01-10T18:11:46.913Z,36.53
2019-01-10T18:14:15.849Z,39.83
2019-01-10T18:16:44.448Z,39.13
2019-01-10T18:19:13.331Z,40.38
2019-01-10T18:21:41.936Z,25.97
2019-01-10T18:24:10.855Z,30.88
2019-01-10T18:26:39.686Z,31.45
2019-01-10T18:29:08.338Z,33.85
2019-01-10T18:31:37.042Z,29.10
2019-01-10T18:34:05.671Z,28.67
2019-01-10T18:36:34.278Z,22.85
2019-01-10T18:39:03.298Z,26.27
2019-01-10T18:41:31.939Z,21.95
2019-01-10T18:44:00.536Z,25.40
2019-01-10T18:46:29.152Z,29.05
2019-01-10T18:48:57.778Z,31.65
2019-01-10T18:51:26.671Z,29.45
2019-01-10T18:53:55.243Z,26.25
2019-01-10T18:56:24.576Z,32.25
2019-01-10T18:58:53.254Z,33.05
2019-01-10T19:01:21.857Z,29.30
2019-01-10T19:03:50.515Z,35.45
2019-01-10T19:06:19.094Z,33.48
2019-01-10T19:08:47.905Z,27.87
2019-01-10T19:11:17.539Z,29.70
2019-01-10T19:13:46.110Z,31.02
2019-01-10T19:16:14.882Z,31.85
2019-01-10T19:18:43.755Z,35.95
2019-01-10T19:21:12.330Z,35.13
2019-01-10T19:23:40.964Z,48.15
2019-01-10T19:26:09.550Z,38.80
2019-01-10T19:28:38.167Z,39.30
2019-01-10T19:31:06.811Z,37.83
2019-01-10T19:33:35.786Z,40.80
2019-01-10T19:36:04.709Z,38.92
2019-01-10T19:38:33.332Z,38.20
2019-01-10T19:41:01.919Z,38.02
2019-01-10T19:43:30.602Z,33.10
2019-01-10T19:45:59.476Z,44.67
2019-01-10T19:48:28.426Z,37.03
2019-01-10T19:50:56.997Z,37.88
2019-01-10T19:53:25.595Z,40.55
2019-01-10T19:55:54.279Z,41.92
2019-01-10T19:58:23.090Z,42.13
2019-01-10T20:00:56.226Z,39.78
2019-01-10T20:03:24.807Z,34.83
2019-01-10T20:05:53.694Z,39.48
2019-01-10T20:08:22.612Z,39.88
2019-01-10T20:10:51.295Z,37.80
2019-01-10T20:13:20.166Z,38.23
2019-01-10T20:15:48.771Z,41.48
2019-01-10T20:18:17.409Z,34.38
2019-01-10T20:20:46.004Z,30.52
2019-01-10T20:23:17.623Z,36.38
2019-01-10T20:25:46.310Z,36.00
2019-01-10T20:28:15.220Z,35.58
2019-01-10T20:30:43.855Z,32.35
2019-01-10T20:33:12.614Z,40.08
2019-01-10T20:35:41.811Z,34.20
2019-01-10T20:38:10.534Z,39.83
2019-01-10T20:40:41.259Z,31.33
2019-01-10T20:43:09.818Z,39.45
2019-01-10T20:45:38.381Z,36.30
2019-01-10T20:48:07.033Z,37.67
2019-01-10T20:50:35.979Z,27.95
2019-01-10T20:53:04.648Z,29.05
2019-01-10T20:55:33.316Z,33.92
2019-01-10T20:58:01.980Z,31.93
2019-01-10T21:00:30.595Z,25.27
2019-01-10T21:02:59.265Z,27.30
2019-01-10T21:05:28.305Z,24.77
2019-01-10T21:07:56.909Z,27.65
2019-01-10T21:10:25.906Z,25.68
2019-01-10T21:12:54.473Z,27.75
2019-01-10T21:15:26.498Z,23.12
2019-01-10T21:17:55.193Z,19.52
2019-01-10T21:20:23.809Z,27.40
2019-01-10T21:22:52.450Z,22.40
2019-01-10T21:25:21.276Z,25.37
2019-01-10T21:27:50.016Z,22.48
2019-01-10T21:30:19.629Z,31.48
2019-01-10T21:32:49.622Z,26.85
2019-01-10T21:35:18.557Z,35.17
2019-01-10T21:37:47.185Z,16.02
2019-01-10T21:40:17.503Z,28.60
2019-01-10T21:42:46.230Z,14.47
2019-01-10T21:45:16.572Z,17.87
2019-01-10T21:47:45.248Z,14.80
2019-01-10T21:50:16.351Z,16.05
2019-01-10T21:52:45.219Z,18.25
2019-01-10T21:55:15.010Z,19.65
2019-01-10T21:57:43.672Z,19.60
2019-01-10T22:00:15.881Z,23.18
2019-01-10T22:02:44.568Z,19.82
2019-01-10T22:05:13.178Z,18.87
2019-01-10T22:07:41.760Z,19.42
2019-01-10T22:10:10.713Z,15.03
2019-01-10T22:12:39.368Z,17.92
2019-01-10T22:15:09.636Z,15.18
2019-01-10T22:17:38.297Z,16.85
2019-01-10T22:20:08.199Z,18.37
2019-01-10T22:22:37.057Z,15.93
2019-01-10T22:25:06.100Z,20.37
2019-01-10T22:27:34.907Z,15.53
2019-01-10T22:30:04.602Z,17.87
2019-01-10T22:32:33.168Z,20.10
2019-01-10T22:35:01.813Z,18.87
2019-01-10T22:37:30.413Z,14.50
2019-01-10T22:39:59.025Z,16.48
2019-01-10T22:42:27.617Z,15.98
2019-01-10T22:44:56.444Z,16.12
2019-01-10T22:47:25.023Z,14.55
2019-01-10T22:49:53.841Z,16.57
2019-01-10T22:52:22.408Z,19.32
2019-01-10T22:54:50.987Z,14.40
2019-01-10T22:57:19.559Z,20.10
2019-01-10T22:59:48.143Z,22.42
2019-01-10T23:02:16.765Z,22.58
2019-01-10T23:04:45.590Z,19.50
2019-01-10T23:07:22.206Z,19.50
2019-01-10T23:09:50.863Z,18.85
2019-01-10T23:12:19.506Z,20.60
2019-01-10T23:14:48.091Z,22.65
2019-01-10T23:17:16.736Z,25.02
2019-01-10T23:19:47.339Z,28.00
2019-01-10T23:22:17.205Z,23.90
2019-01-10T23:24:46.010Z,24.57
2019-01-10T23:27:14.681Z,33.35
2019-01-10T23:29:43.266Z,27.37
2019-01-10T23:32:15.731Z,24.95
2019-01-10T23:34:48.752Z,26.68
2019-01-10T23:37:22.129Z,29.75
2019-01-10T23:39:50.733Z,27.07
2019-01-10T23:42:19.468Z,28.38
2019-01-10T23:44:48.046Z,37.00
2019-01-10T23:47:16.641Z,30.50
2019-01-10T23:49:45.485Z,27.67
2019-01-10T23:52:14.199Z,28.02
2019-01-10T23:54:42.761Z,26.73
2019-01-10T23:57:11.681Z,28.65
2019-01-10T23:59:40.504Z,32.80
